Wan Hai 508 — 9VJJ6 — position and weather

sailwx.info

Track history (hours):
 
Tides and Currents Weather Stations Pressure Air Temp Water Temp Dewpoint Dewpoint Depression Visibility Wind Speed Wind Dir Waves Ship Positions

Wan Hai 508

Last reported at 2016-Jun-19 19:04 UTC. Time now 2016-Jun-30 12:19 UTC.
Position N 02°18' E 101°51'.
Warning: this ship's position is 10 days out of date.

Length 269 m; draft 8.6 m.

Type: Cargo ship. MMSI: 565567000.

Date/timePositionNaut miles runAvg speedWind from/ knotsBaromVisibWave heightAir tempDewpointWater temp
2016-Jun-19 19:04N 02°18' E 101°51'1220.7
2016-Jun-19 18:30N 02°10' E 101°60'2120.5
2016-Jun-19 17:29N 01°57' E 102°16'1920.1
2016-Jun-19 16:33N 01°49' E 102°33'1919.3
2016-Jun-19 15:33N 01°42' E 102°51'5717.6
2016-Jun-19 12:19N 01°11' E 103°39'1114.4
2016-Jun-19 11:33N 01°11' E 103°50'5 4.6
2016-Jun-19 10:34N 01°16' E 103°50'0 0.1
2016-Jun-19 09:33N 01°16' E 103°50'0 0.0
2016-Jun-19 08:33N 01°16' E 103°50'0 0.0
2016-Jun-19 07:33N 01°16' E 103°50'0 0.0
2016-Jun-19 06:33N 01°16' E 103°50'0 0.0
2016-Jun-19 05:33N 01°16' E 103°50'0 0.0
2016-Jun-19 04:33N 01°16' E 103°50'0 0.0
2016-Jun-19 03:33N 01°16' E 103°50'0 0.0
2016-Jun-19 02:27N 01°16' E 103°50'0 0.0
2016-Jun-19 01:33N 01°16' E 103°50'0 0.0
2016-Jun-19 00:33N 01°16' E 103°50'0 0.0
2016-Jun-18 23:33N 01°16' E 103°50'3 2.7
2016-Jun-18 22:33N 01°14' E 103°53'8 7.8
2016-Jun-18 21:33N 01°09' E 103°47'1712.5
2016-Jun-18 20:11N 01°08' E 103°30'3319.8
2016-Jun-18 18:32N 01°28' E 103°04'2119.6
2016-Jun-18 17:29N 01°39' E 102°47'22 7.5
2016-Jun-18 14:33N 01°48' E 102°27'2216.3
2016-Jun-18 13:12N 01°59' E 102°07'  
Track history (hours):
 
Tides and Currents Weather Stations Pressure Air Temp Water Temp Dewpoint Dewpoint Depression Visibility Wind Speed Wind Dir Waves Ship Positions

Wan Hai 508

Last reported at 2016-Jun-19 19:04 UTC. Time now 2016-Jun-30 12:19 UTC.
Position N 02°18' E 101°51'.
Warning: this ship's position is 10 days out of date.

Length 269 m; draft 8.6 m.

Type: Cargo ship. MMSI: 565567000.

Date/timePositionNaut miles runAvg speedWind from/ knotsBaromVisibWave heightAir tempDewpointWater temp
2016-Jun-19 19:04N 02°18' E 101°51'1220.7
2016-Jun-19 18:30N 02°10' E 101°60'2120.5
2016-Jun-19 17:29N 01°57' E 102°16'1920.1
2016-Jun-19 16:33N 01°49' E 102°33'1919.3
2016-Jun-19 15:33N 01°42' E 102°51'5717.6
2016-Jun-19 12:19N 01°11' E 103°39'1114.4
2016-Jun-19 11:33N 01°11' E 103°50'5 4.6
2016-Jun-19 10:34N 01°16' E 103°50'0 0.1
2016-Jun-19 09:33N 01°16' E 103°50'0 0.0
2016-Jun-19 08:33N 01°16' E 103°50'0 0.0
2016-Jun-19 07:33N 01°16' E 103°50'0 0.0
2016-Jun-19 06:33N 01°16' E 103°50'0 0.0
2016-Jun-19 05:33N 01°16' E 103°50'0 0.0
2016-Jun-19 04:33N 01°16' E 103°50'0 0.0
2016-Jun-19 03:33N 01°16' E 103°50'0 0.0
2016-Jun-19 02:27N 01°16' E 103°50'0 0.0
2016-Jun-19 01:33N 01°16' E 103°50'0 0.0
2016-Jun-19 00:33N 01°16' E 103°50'0 0.0
2016-Jun-18 23:33N 01°16' E 103°50'3 2.7
2016-Jun-18 22:33N 01°14' E 103°53'8 7.8
2016-Jun-18 21:33N 01°09' E 103°47'1712.5
2016-Jun-18 20:11N 01°08' E 103°30'3319.8
2016-Jun-18 18:32N 01°28' E 103°04'2119.6
2016-Jun-18 17:29N 01°39' E 102°47'22 7.5
2016-Jun-18 14:33N 01°48' E 102°27'2216.3
2016-Jun-18 13:12N 01°59' E 102°07'  

Dump ship's entire track history